Time;durP1;ratioP1;P1;durP2;ratioP2;P2;SDS_P1;SDS_P2;PMS_P1;PMS_P2;Temp;Humidity;BMP_temperature;BMP_pressure;BME280_temperature;BME280_humidity;BME280_pressure;Samples;Min_cycle;Max_cycle;Signal;HPM_P1;HPM_P2
2021/06/24 00:02:15;;;;;;;;;;;;;;;;;;;;;
2021/06/24 00:04:46;;;;;;;5.40;1.67;;;16.00;99.90;;;;;;4987062;28;20048;-87
2021/06/24 00:07:14;;;;;;;4.32;2.03;;;15.90;99.90;;;;;;4943473;28;20129;-87
2021/06/24 00:09:40;;;;;;;4.25;1.90;;;15.90;99.90;;;;;;4966684;28;20046;-86
2021/06/24 00:12:09;;;;;;;4.15;2.08;;;16.00;99.90;;;;;;4965980;28;20061;-87
2021/06/24 00:14:42;;;;;;;5.95;2.10;;;16.00;99.90;;;;;;4988563;28;20081;-86
2021/06/24 00:17:08;;;;;;;4.75;2.10;;;15.90;99.90;;;;;;4963159;28;20027;-87
2021/06/24 00:19:39;;;;;;;7.32;2.00;;;15.90;99.90;;;;;;4955443;28;20019;-87
2021/06/24 00:22:05;;;;;;;6.53;2.05;;;15.90;99.90;;;;;;4965352;28;20034;-86
2021/06/24 00:24:41;;;;;;;;;;;;;;;;;;;;;
2021/06/24 00:27:10;;;;;;;3.35;1.80;;;15.90;99.90;;;;;;4974389;28;20018;-87
2021/06/24 00:29:36;;;;;;;5.22;1.90;;;15.80;99.90;;;;;;4966447;28;20054;-86
2021/06/24 00:32:13;;;;;;;4.45;2.30;;;15.80;99.90;;;;;;4970211;28;20046;-87
2021/06/24 00:34:42;;;;;;;3.67;1.90;;;15.80;99.90;;;;;;4976157;28;20030;-87
2021/06/24 00:37:10;;;;;;;2.60;1.65;;;15.80;99.90;;;;;;4976144;28;20054;-87
2021/06/24 00:39:36;;;;;;;2.88;1.60;;;15.80;99.90;;;;;;4976111;28;20059;-87
2021/06/24 00:42:18;;;;;;;3.72;1.70;;;15.80;99.90;;;;;;4976132;28;20070;-86
2021/06/24 00:44:46;;;;;;;5.82;2.42;;;15.80;99.90;;;;;;4958715;28;20038;-87
2021/06/24 00:47:12;;;;;;;4.68;1.73;;;15.80;99.90;;;;;;4975940;28;20081;-89
2021/06/24 00:49:39;;;;;;;3.17;1.90;;;15.80;99.90;;;;;;4958742;28;20476;-87
2021/06/24 00:52:05;;;;;;;3.67;1.75;;;15.80;99.90;;;;;;4957578;28;20066;-87
2021/06/24 00:54:33;;;;;;;3.65;1.88;;;15.80;99.90;;;;;;4973822;28;20062;-87
2021/06/24 00:57:10;;;;;;;;;;;;;;;;;;;;;
2021/06/24 00:59:47;;;;;;;5.13;2.28;;;15.70;99.90;;;;;;4974495;28;20049;-87
2021/06/24 01:02:15;;;;;;;3.10;2.00;;;15.70;99.90;;;;;;4957916;28;20062;-87
2021/06/24 01:04:41;;;;;;;4.45;2.05;;;15.70;99.90;;;;;;4957665;28;20123;-87
2021/06/24 01:07:18;;;;;;;6.15;2.00;;;15.70;99.90;;;;;;4974427;28;20457;-87
2021/06/24 01:09:44;;;;;;;4.45;2.15;;;15.60;99.90;;;;;;4975771;28;20118;-87
2021/06/24 01:12:11;;;;;;;4.40;2.20;;;15.60;99.90;;;;;;4962156;28;20030;-87
2021/06/24 01:14:38;;;;;;;4.78;2.35;;;15.60;99.90;;;;;;4972405;28;20062;-87
2021/06/24 01:17:04;;;;;;;6.25;2.38;;;15.60;99.90;;;;;;4961299;28;20434;-85
2021/06/24 01:19:36;;;;;;;4.78;2.60;;;15.60;99.90;;;;;;4976222;28;20031;-86
2021/06/24 01:22:05;;;;;;;4.45;2.08;;;15.60;99.90;;;;;;4961070;28;20023;-86
2021/06/24 01:24:38;;;;;;;5.30;2.10;;;15.50;99.90;;;;;;4976830;28;20042;-85
2021/06/24 01:27:05;;;;;;;3.83;2.10;;;15.50;99.90;;;;;;4979181;28;20042;-86
2021/06/24 01:29:33;;;;;;;5.53;2.30;;;15.50;99.90;;;;;;4956165;28;20027;-86
2021/06/24 01:32:08;;;;;;;3.85;2.38;;;15.50;99.90;;;;;;4941265;28;20045;-86
2021/06/24 01:34:38;;;;;;;4.03;1.98;;;15.50;99.90;;;;;;4959786;28;20035;-86
2021/06/24 01:37:06;;;;;;;4.35;2.50;;;15.50;99.90;;;;;;4958388;28;20033;-86
2021/06/24 01:39:33;;;;;;;5.63;2.22;;;15.50;99.90;;;;;;4957856;28;20038;-86
2021/06/24 01:42:00;;;;;;;4.22;2.25;;;15.50;99.90;;;;;;4958125;28;20063;-86
2021/06/24 01:44:33;;;;;;;4.22;2.03;;;15.50;99.90;;;;;;4975729;28;20035;-86
2021/06/24 01:46:59;;;;;;;4.72;1.92;;;15.50;99.90;;;;;;4957848;28;20494;-87
2021/06/24 01:49:25;;;;;;;3.55;1.95;;;15.50;99.90;;;;;;4975466;28;20022;-86
2021/06/24 01:51:54;;;;;;;3.17;2.05;;;15.50;99.90;;;;;;4975418;28;20031;-86
2021/06/24 01:54:23;;;;;;;3.33;1.90;;;15.40;99.90;;;;;;4957748;28;20502;-87
2021/06/24 01:56:53;;;;;;;4.78;2.35;;;15.50;99.90;;;;;;4957796;28;20472;-88
2021/06/24 01:59:21;;;;;;;4.63;2.25;;;15.40;99.90;;;;;;4938659;29;20125;-86
2021/06/24 02:01:47;;;;;;;4.40;2.05;;;15.40;99.90;;;;;;4938700;29;20042;-86
2021/06/24 02:04:13;;;;;;;3.78;1.98;;;15.40;99.90;;;;;;4954687;29;20040;-86
2021/06/24 02:06:48;;;;;;;6.10;2.67;;;15.40;99.90;;;;;;4955207;29;20480;-87
2021/06/24 02:09:16;;;;;;;3.78;2.08;;;15.30;99.90;;;;;;4955449;29;20094;-87
2021/06/24 02:11:44;;;;;;;5.35;2.53;;;15.30;99.90;;;;;;4954419;29;20546;-87
2021/06/24 02:14:12;;;;;;;3.70;2.40;;;15.40;99.90;;;;;;4938880;29;20062;-88
2021/06/24 02:16:37;;;;;;;5.22;2.55;;;15.30;99.90;;;;;;4954309;28;20067;-86
2021/06/24 02:19:03;;;;;;;4.40;2.30;;;15.30;99.90;;;;;;4956090;29;20090;-86
2021/06/24 02:21:29;;;;;;;4.80;2.63;;;15.30;99.90;;;;;;4954324;29;20027;-86
2021/06/24 02:23:56;;;;;;;5.28;2.50;;;15.30;99.90;;;;;;4937975;29;20031;-86
2021/06/24 02:26:21;;;;;;;4.97;2.35;;;15.30;99.90;;;;;;4955046;29;20039;-86
2021/06/24 02:28:51;;;;;;;5.72;2.70;;;15.20;99.90;;;;;;4953816;29;20551;-86
2021/06/24 02:31:17;;;;;;;4.05;2.67;;;15.20;99.90;;;;;;4937845;29;20039;-86
2021/06/24 02:33:43;;;;;;;6.05;2.65;;;15.20;99.90;;;;;;4938284;29;20042;-86
2021/06/24 02:36:12;;;;;;;3.45;2.30;;;15.20;99.90;;;;;;4953913;29;20389;-86
2021/06/24 02:38:41;;;;;;;4.47;2.70;;;15.20;99.90;;;;;;4953761;29;20040;-87
2021/06/24 02:41:11;;;;;;;4.15;2.03;;;15.20;99.90;;;;;;4955217;29;20375;-87
2021/06/24 02:43:37;;;;;;;3.40;2.17;;;15.20;99.90;;;;;;4955152;29;20043;-87
2021/06/24 02:46:06;;;;;;;3.28;2.08;;;15.20;99.90;;;;;;4955442;29;20027;-87
2021/06/24 02:48:36;;;;;;;5.20;2.65;;;15.20;99.90;;;;;;4955653;29;20082;-87
2021/06/24 02:51:05;;;;;;;5.88;2.45;;;15.20;99.90;;;;;;4939475;29;20055;-86
2021/06/24 02:53:35;;;;;;;4.75;2.38;;;15.10;99.90;;;;;;4957389;29;20035;-87
2021/06/24 02:56:08;;;;;;;5.20;2.10;;;15.10;99.90;;;;;;4958376;29;20042;-87
2021/06/24 02:58:51;;;;;;;7.95;3.53;;;15.10;99.90;;;;;;4970367;28;20090;-87
2021/06/24 03:01:21;;;;;;;4.70;2.47;;;15.10;99.90;;;;;;4960991;28;20026;-87
2021/06/24 03:03:49;;;;;;;6.53;3.10;;;15.10;99.90;;;;;;4977705;28;20047;-87
2021/06/24 03:06:22;;;;;;;3.97;2.72;;;15.00;99.90;;;;;;4943963;28;20027;-87
2021/06/24 03:08:50;;;;;;;4.70;2.75;;;15.00;99.90;;;;;;4962124;28;20349;-87
2021/06/24 03:11:19;;;;;;;4.88;2.65;;;15.00;99.90;;;;;;4978491;28;20050;-87
2021/06/24 03:13:53;;;;;;;6.03;2.92;;;15.00;99.90;;;;;;4999511;28;20026;-83
2021/06/24 03:16:19;;;;;;;4.70;3.00;;;15.00;99.90;;;;;;4979541;28;20026;-86
2021/06/24 03:18:49;;;;;;;7.53;3.15;;;15.00;99.90;;;;;;4961236;28;20380;-87
2021/06/24 03:21:19;;;;;;;4.95;2.53;;;14.90;99.90;;;;;;4987401;28;20063;-86
2021/06/24 03:23:57;;;;;;;4.97;2.47;;;14.90;99.90;;;;;;4988424;28;20062;-87
2021/06/24 03:26:23;;;;;;;6.25;2.72;;;14.90;99.90;;;;;;4977669;28;20027;-86
2021/06/24 03:28:49;;;;;;;4.68;2.60;;;14.90;99.90;;;;;;4960059;28;20023;-87
2021/06/24 03:31:17;;;;;;;4.32;2.83;;;14.90;99.90;;;;;;4960627;28;20478;-86
2021/06/24 03:33:43;;;;;;;5.57;2.88;;;14.80;99.90;;;;;;4960255;28;20050;-87
2021/06/24 03:36:12;;;;;;;5.90;3.00;;;14.80;99.90;;;;;;4976937;28;20027;-86
2021/06/24 03:38:38;;;;;;;6.03;2.88;;;14.80;99.90;;;;;;4960077;28;20464;-87
2021/06/24 03:41:06;;;;;;;4.30;2.70;;;14.80;99.90;;;;;;4977399;28;20034;-86
2021/06/24 03:43:33;;;;;;;7.03;3.20;;;14.80;99.90;;;;;;4977200;28;20031;-86
2021/06/24 03:46:01;;;;;;;5.30;2.65;;;14.80;99.90;;;;;;4928109;28;20038;-87
2021/06/24 03:48:32;;;;;;;5.10;3.08;;;14.80;99.90;;;;;;4959662;28;20033;-86
2021/06/24 03:51:19;;;;;;;4.55;2.75;;;14.80;99.90;;;;;;4977501;28;20030;-88
2021/06/24 03:53:50;;;;;;;7.20;2.60;;;14.80;99.90;;;;;;4976690;28;20030;-87
2021/06/24 03:56:15;;;;;;;5.32;2.58;;;14.80;99.90;;;;;;4977118;28;20109;-87
2021/06/24 03:58:42;;;;;;;4.53;2.65;;;14.80;99.90;;;;;;4959200;28;20138;-87
2021/06/24 04:01:11;;;;;;;5.43;3.00;;;14.90;99.90;;;;;;4977030;28;20050;-86
2021/06/24 04:03:42;;;;;;;7.05;3.03;;;14.80;99.90;;;;;;4959036;28;20403;-86
2021/06/24 04:06:13;;;;;;;4.90;2.22;;;14.90;99.90;;;;;;4959577;28;20070;-86
2021/06/24 04:08:41;;;;;;;5.53;2.70;;;14.90;99.90;;;;;;4959591;28;20062;-86
2021/06/24 04:11:16;;;;;;;4.47;2.63;;;14.90;99.90;;;;;;4959204;28;20494;-86
2021/06/24 04:13:43;;;;;;;5.20;2.38;;;14.90;99.90;;;;;;4976421;28;20026;-86
2021/06/24 04:16:15;;;;;;;3.45;2.15;;;14.90;99.90;;;;;;4959078;28;20027;-86
2021/06/24 04:18:45;;;;;;;5.28;2.60;;;15.00;99.90;;;;;;4976050;28;20023;-86
2021/06/24 04:21:10;;;;;;;4.63;3.00;;;14.90;99.90;;;;;;4976590;28;20031;-86
2021/06/24 04:23:37;;;;;;;6.03;2.72;;;15.00;99.90;;;;;;4975870;28;20473;-87
2021/06/24 04:26:05;;;;;;;5.07;2.80;;;15.00;99.90;;;;;;4958624;28;20113;-86
2021/06/24 04:28:31;;;;;;;5.10;2.63;;;15.00;99.90;;;;;;4942952;28;20026;-87
2021/06/24 04:31:01;;;;;;;4.50;2.22;;;15.00;99.90;;;;;;4959060;28;20070;-86
2021/06/24 04:33:32;;;;;;;6.70;2.67;;;15.00;99.90;;;;;;4976054;28;20031;-86
2021/06/24 04:36:06;;;;;;;5.90;2.50;;;15.10;99.90;;;;;;4955850;28;20027;-86
2021/06/24 04:38:36;;;;;;;4.07;2.42;;;15.10;99.90;;;;;;4963614;28;20056;-85
2021/06/24 04:41:05;;;;;;;4.00;2.40;;;15.10;99.90;;;;;;4962021;28;20026;-85
2021/06/24 04:43:31;;;;;;;7.00;2.42;;;15.10;99.90;;;;;;4985085;28;20035;-86
2021/06/24 04:46:17;;;;;;;5.57;2.40;;;15.10;99.90;;;;;;4966877;28;20022;-86
2021/06/24 04:48:49;;;;;;;5.50;2.47;;;15.20;99.90;;;;;;4959625;28;20031;-86
2021/06/24 04:51:24;;;;;;;5.50;2.70;;;15.20;99.90;;;;;;4976469;28;20109;-87
2021/06/24 04:53:52;;;;;;;3.67;2.20;;;15.20;99.90;;;;;;4976024;28;20482;-87
2021/06/24 04:56:22;;;;;;;4.07;2.40;;;15.20;99.90;;;;;;4978803;28;20062;-86
2021/06/24 04:58:49;;;;;;;5.35;2.80;;;15.20;99.90;;;;;;4974624;28;20487;-87
2021/06/24 05:01:33;;;;;;;4.07;2.53;;;15.20;99.90;;;;;;4990866;28;20037;-84
2021/06/24 05:04:01;;;;;;;3.45;2.28;;;15.20;99.90;;;;;;4966636;28;20130;-85
2021/06/24 05:06:53;;;;;;;4.50;2.38;;;15.30;99.90;;;;;;4977167;28;20073;-87
2021/06/24 05:09:28;;;;;;;3.75;2.28;;;15.30;99.90;;;;;;4955314;28;20023;-86
2021/06/24 05:12:17;;;;;;;3.53;2.00;;;15.30;99.90;;;;;;4977391;28;20038;-86
2021/06/24 05:15:01;;;;;;;;;;;;;;;;;;;;;
2021/06/24 05:17:52;;;;;;;4.45;2.15;;;15.40;99.90;;;;;;4985778;28;20019;-86
2021/06/24 05:20:54;;;;;;;4.18;2.28;;;15.40;99.90;;;;;;4969995;28;20140;-86
2021/06/24 05:23:24;;;;;;;3.97;2.22;;;15.50;99.90;;;;;;4935204;28;20656;-86
2021/06/24 05:25:55;;;;;;;5.13;2.35;;;15.50;99.90;;;;;;4981640;28;20125;-86
2021/06/24 05:28:25;;;;;;;4.38;2.80;;;15.50;99.90;;;;;;4972554;28;20027;-85
2021/06/24 05:31:52;;;;;;;;;;;;;;;;;;;;;
2021/06/24 05:38:10;;;;;;;;;;;;;;;;;;;;;
2021/06/24 05:40:54;;;;;;;;;;;;;;;;;;;;;
2021/06/24 05:46:32;;;;;;;3.30;2.28;;;15.60;99.90;;;;;;4934760;28;19962;-85
2021/06/24 05:49:07;;;;;;;4.70;2.30;;;15.70;99.90;;;;;;4974008;28;20499;-86
2021/06/24 05:51:39;;;;;;;5.45;2.60;;;15.70;99.90;;;;;;4957410;28;20057;-86
2021/06/24 05:54:34;;;;;;;6.40;2.72;;;15.70;99.90;;;;;;4950628;28;20430;-86
2021/06/24 05:57:29;;;;;;;3.47;2.28;;;15.70;99.90;;;;;;4989395;28;20043;-87
2021/06/24 05:59:59;;;;;;;3.20;2.13;;;15.80;99.90;;;;;;4965345;28;20035;-85
2021/06/24 06:02:29;;;;;;;5.13;2.83;;;15.80;99.90;;;;;;4960131;28;20054;-86
2021/06/24 06:05:06;;;;;;;4.38;2.45;;;15.90;99.90;;;;;;4953525;29;20038;-86
2021/06/24 06:08:01;;;;;;;5.15;2.65;;;16.00;99.90;;;;;;4947374;29;20392;-86
2021/06/24 06:10:36;;;;;;;4.55;2.33;;;16.00;99.90;;;;;;4955274;28;20031;-86
2021/06/24 06:13:35;;;;;;;;;;;;;;;;;;;;;
2021/06/24 06:19:45;;;;;;;;;;;;;;;;;;;;;
2021/06/24 06:22:48;;;;;;;3.30;2.50;;;16.20;99.90;;;;;;4946244;29;20039;-87
2021/06/24 06:26:10;;;;;;;5.25;2.30;;;16.20;99.90;;;;;;4938267;29;20027;-86
2021/06/24 06:29:02;;;;;;;;;;;;;;;;;;;;;
2021/06/24 06:38:47;;;;;;;;;;;;;;;;;;;;;
2021/06/24 06:45:17;;;;;;;4.72;2.50;;;16.60;99.90;;;;;;4947188;28;20054;-87
2021/06/24 06:48:43;;;;;;;4.40;2.10;;;16.80;99.90;;;;;;4960197;28;20030;-87
2021/06/24 06:52:11;;;;;;;;;;;;;;;;;;;;;
2021/06/24 06:55:01;;;;;;;;;;;;;;;;;;;;;
2021/06/24 06:58:11;;;;;;;3.17;1.95;;;16.90;99.90;;;;;;4957686;28;20043;-85
2021/06/24 07:00:46;;;;;;;2.95;1.90;;;17.00;99.90;;;;;;4935666;28;20035;-84
2021/06/24 07:03:21;;;;;;;4.07;1.67;;;17.10;99.90;;;;;;4957689;28;20069;-86
2021/06/24 07:06:19;;;;;;;5.10;2.60;;;17.20;99.90;;;;;;4963409;28;20035;-84
2021/06/24 07:08:45;;;;;;;4.43;2.33;;;17.30;99.90;;;;;;4957008;28;20047;-86
2021/06/24 07:11:15;;;;;;;4.05;2.22;;;17.40;99.90;;;;;;4950220;28;20517;-85
2021/06/24 07:14:30;;;;;;;4.32;2.33;;;17.40;99.90;;;;;;4973469;28;20034;-85
2021/06/24 07:17:04;;;;;;;3.67;2.17;;;17.50;99.90;;;;;;4956777;28;20045;-85
2021/06/24 07:23:33;;;;;;;;;;;;;;;;;;;;;
2021/06/24 07:26:13;;;;;;;5.45;2.33;;;17.60;99.90;;;;;;4974609;28;20083;-84
2021/06/24 07:29:08;;;;;;;2.75;1.75;;;17.60;99.90;;;;;;4976054;28;20041;-84
2021/06/24 07:32:17;;;;;;;;;;;17.60;99.90;;;;;;4985401;28;20027;-85
2021/06/24 07:35:11;;;;;;;;;;;;;;;;;;;;;
2021/06/24 07:37:50;;;;;;;;;;;;;;;;;;;;;
2021/06/24 07:40:36;;;;;;;3.60;1.98;;;17.80;99.90;;;;;;4985279;28;20122;-85
2021/06/24 07:43:23;;;;;;;;;;;;;;;;;;;;;
2021/06/24 07:46:01;;;;;;;2.75;1.90;;;18.00;99.90;;;;;;4977882;28;20035;-84
2021/06/24 07:49:04;;;;;;;4.00;1.75;;;18.10;99.90;;;;;;4975208;28;20026;-84
2021/06/24 07:51:33;;;;;;;3.97;1.98;;;18.20;99.90;;;;;;4976548;28;20435;-84
2021/06/24 07:54:23;;;;;;;3.33;1.85;;;18.40;99.90;;;;;;4978553;28;20033;-84
2021/06/24 08:00:30;;;;;;;;;;;;;;;;;;;;;
2021/06/24 08:03:00;;;;;;;2.85;1.48;;;18.50;99.90;;;;;;4992441;28;20026;-83
2021/06/24 08:08:40;;;;;;;2.35;1.70;;;18.60;99.90;;;;;;4971721;28;20063;-84
2021/06/24 08:11:39;;;;;;;3.28;1.88;;;18.60;99.90;;;;;;4946486;28;20093;-84
2021/06/24 08:14:13;;;;;;;3.15;1.52;;;18.70;99.90;;;;;;4957737;28;20038;-84
2021/06/24 08:17:30;;;;;;;3.67;1.83;;;18.60;99.90;;;;;;4957059;28;20043;-83
2021/06/24 08:20:00;;;;;;;3.88;1.83;;;18.60;99.90;;;;;;4955369;28;20047;-83
2021/06/24 08:22:40;;;;;;;2.45;1.80;;;18.50;99.90;;;;;;4988967;28;20054;-85
2021/06/24 08:25:19;;;;;;;3.20;1.77;;;18.40;99.90;;;;;;4947918;28;20030;-84
2021/06/24 08:27:50;;;;;;;2.13;1.60;;;18.30;99.90;;;;;;4970271;28;20105;-85
2021/06/24 08:30:17;;;;;;;3.22;1.55;;;18.30;99.90;;;;;;4972062;28;20030;-85
2021/06/24 08:32:52;;;;;;;2.72;1.80;;;18.30;99.90;;;;;;4978421;28;20109;-84
2021/06/24 08:35:39;;;;;;;5.80;2.25;;;18.30;99.90;;;;;;4989398;28;20463;-85
2021/06/24 08:38:10;;;;;;;5.28;2.42;;;18.30;99.90;;;;;;4951491;28;20027;-85
2021/06/24 08:41:14;;;;;;;;;;;;;;;;;;;;;
2021/06/24 08:44:00;;;;;;;3.38;1.80;;;18.20;99.90;;;;;;4971629;28;20540;-85
2021/06/24 08:46:47;;;;;;;;;;;;;;;;;;;;;
2021/06/24 08:49:37;;;;;;;5.20;2.25;;;18.10;99.90;;;;;;4978255;28;20033;-84
2021/06/24 08:52:17;;;;;;;4.10;2.00;;;18.10;99.80;;;;;;4946107;28;20042;-84
2021/06/24 08:54:51;;;;;;;4.13;1.80;;;18.00;99.90;;;;;;4973738;28;20462;-84
2021/06/24 08:57:19;;;;;;;4.95;2.13;;;18.10;99.90;;;;;;4960111;28;20026;-85
2021/06/24 09:00:01;;;;;;;2.88;2.00;;;18.10;99.90;;;;;;4966871;28;20129;-85
2021/06/24 09:03:03;;;;;;;3.40;1.90;;;18.10;99.80;;;;;;4957933;28;20035;-84
2021/06/24 09:06:30;;;;;;;5.28;2.00;;;18.20;99.80;;;;;;4926634;29;20131;-84
2021/06/24 09:09:26;;;;;;;4.63;1.80;;;18.30;99.70;;;;;;4933691;28;20046;-85
2021/06/24 09:12:12;;;;;;;3.22;1.60;;;18.30;99.80;;;;;;4976365;28;20117;-84
2021/06/24 09:15:11;;;;;;;4.97;2.20;;;18.30;99.80;;;;;;4958987;28;20126;-84
2021/06/24 09:21:21;;;;;;;4.03;1.92;;;18.40;99.90;;;;;;4951566;28;20030;-84
2021/06/24 09:24:45;;;;;;;5.15;2.00;;;18.30;99.80;;;;;;4951276;28;20131;-84
2021/06/24 09:28:19;;;;;;;;;;;;;;;;;;;;;
2021/06/24 09:31:26;;;;;;;;;;;;;;;;;;;;;
2021/06/24 09:34:43;;;;;;;4.53;2.08;;;18.00;99.90;;;;;;4875539;29;20433;-85
2021/06/24 09:37:22;;;;;;;;;;;;;;;;;;;;;
2021/06/24 09:40:23;;;;;;;;;;;;;;;;;;;;;
2021/06/24 09:43:18;;;;;;;7.03;2.38;;;17.90;99.90;;;;;;4898127;29;20584;-85
2021/06/24 09:46:13;;;;;;;3.97;2.67;;;17.80;99.90;;;;;;4901180;29;20111;-85
2021/06/24 09:49:09;;;;;;;;;;;;;;;;;;;;;
2021/06/24 09:55:54;;;;;;;;;;;;;;;;;;;;;
2021/06/24 09:59:59;;;;;;;;;;;;;;;;;;;;;
2021/06/24 10:33:12;;;;;;;2.97;2.50;;;18.50;99.90;;;;;;5086240;27;1383739;-90
2021/06/24 10:36:20;;;;;;;3.60;2.42;;;18.40;99.80;;;;;;5094865;28;20030;-94
2021/06/24 10:38:53;;;;;;;4.10;2.40;;;18.40;99.80;;;;;;5099630;28;20058;-93
2021/06/24 10:41:24;;;;;;;3.10;2.80;;;18.40;99.80;;;;;;5076824;28;20060;-94
2021/06/24 10:43:52;;;;;;;4.55;2.50;;;18.40;99.90;;;;;;5049780;28;20029;-92
2021/06/24 10:46:21;;;;;;;4.63;2.50;;;18.40;99.90;;;;;;5054684;28;20683;-92
2021/06/24 10:48:47;;;;;;;3.63;2.40;;;18.50;99.80;;;;;;5047389;28;20021;-90
2021/06/24 10:51:15;;;;;;;3.60;2.47;;;18.50;99.80;;;;;;5038390;28;20033;-92
2021/06/24 10:53:42;;;;;;;3.95;2.05;;;18.60;99.90;;;;;;5032409;28;20025;-92
2021/06/24 10:56:33;;;;;;;4.70;2.38;;;18.60;99.90;;;;;;5048991;28;20479;-93
2021/06/24 10:59:21;;;;;;;3.40;2.25;;;18.60;99.90;;;;;;5046116;28;20078;-91
2021/06/24 11:01:47;;;;;;;4.35;2.67;;;18.70;99.80;;;;;;5049181;28;20033;-90
2021/06/24 11:04:37;;;;;;;5.80;3.00;;;18.70;99.60;;;;;;5052257;28;20032;-91
2021/06/24 11:07:23;;;;;;;4.68;2.88;;;18.80;99.60;;;;;;5045614;28;20033;-91
2021/06/24 11:10:20;;;;;;;4.00;2.65;;;18.80;99.50;;;;;;5069590;28;20020;-91
2021/06/24 11:12:52;;;;;;;5.53;3.28;;;18.90;99.50;;;;;;5072833;28;20041;-91
2021/06/24 11:15:50;;;;;;;3.75;2.72;;;18.90;99.50;;;;;;5073873;28;20024;-91
2021/06/24 11:18:30;;;;;;;4.95;2.97;;;18.80;99.60;;;;;;5073285;28;20021;-89
2021/06/24 11:20:58;;;;;;;4.20;2.90;;;18.80;99.60;;;;;;5073685;28;20029;-88
2021/06/24 11:23:55;;;;;;;5.50;2.95;;;18.80;99.70;;;;;;5073371;28;20119;-91
2021/06/24 11:26:27;;;;;;;6.10;2.95;;;18.80;99.60;;;;;;5073447;28;20018;-89
2021/06/24 11:29:03;;;;;;;6.38;2.85;;;18.80;99.60;;;;;;5083106;28;20038;-90
2021/06/24 11:31:42;;;;;;;4.85;2.90;;;18.90;99.80;;;;;;5100744;28;20051;-91
2021/06/24 11:34:20;;;;;;;3.90;2.40;;;19.00;99.50;;;;;;5101650;28;20086;-91
2021/06/24 11:36:50;;;;;;;4.60;2.72;;;19.00;99.50;;;;;;5094862;28;20470;-92
2021/06/24 11:39:33;;;;;;;5.05;2.60;;;19.10;99.50;;;;;;5078253;28;20046;-90
2021/06/24 11:42:31;;;;;;;4.30;2.65;;;19.20;99.40;;;;;;5078411;28;20432;-92
2021/06/24 11:45:06;;;;;;;3.38;2.80;;;19.20;99.40;;;;;;5051715;28;20032;-93
2021/06/24 11:47:37;;;;;;;3.78;2.72;;;19.20;99.50;;;;;;5057186;28;20079;-91
2021/06/24 12:04:01;;;;;;;3.33;2.67;;;19.20;99.40;;;;;;5066909;28;20039;-91
2021/06/24 12:06:50;;;;;;;6.10;3.28;;;19.20;99.50;;;;;;5069997;28;20646;-92
2021/06/24 12:09:26;;;;;;;5.50;2.80;;;19.20;99.50;;;;;;5074217;28;20047;-92
2021/06/24 12:11:55;;;;;;;4.38;2.85;;;19.20;99.60;;;;;;5058548;28;20036;-91
2021/06/24 12:14:30;;;;;;;3.83;2.88;;;19.20;99.50;;;;;;5061054;28;20020;-90
2021/06/24 12:17:13;;;;;;;5.35;3.42;;;19.30;99.60;;;;;;5057428;28;20012;-89
2021/06/24 12:20:01;;;;;;;4.28;2.80;;;19.40;99.30;;;;;;5073311;28;20020;-91
2021/06/24 12:22:37;;;;;;;3.53;2.25;;;19.40;99.40;;;;;;5056578;28;20033;-90
2021/06/24 12:25:09;;;;;;;3.33;2.70;;;19.50;99.40;;;;;;5058625;28;20025;-92
2021/06/24 12:27:55;;;;;;;4.38;2.80;;;19.60;99.30;;;;;;5068377;28;20025;-94
2021/06/24 12:30:26;;;;;;;3.65;2.55;;;19.60;99.30;;;;;;5070157;28;20050;-94
2021/06/24 12:33:07;;;;;;;3.63;2.75;;;19.60;99.20;;;;;;5067799;28;20578;-93
2021/06/24 12:35:40;;;;;;;5.35;2.65;;;19.60;99.30;;;;;;5055946;28;20024;-93
2021/06/24 12:38:11;;;;;;;4.10;2.72;;;19.60;99.40;;;;;;5059398;28;20044;-92
2021/06/24 12:40:43;;;;;;;4.78;3.42;;;19.70;99.40;;;;;;5039869;28;20029;-93
2021/06/24 12:43:15;;;;;;;5.25;3.17;;;19.90;99.40;;;;;;5070105;28;20013;-93
2021/06/24 12:45:41;;;;;;;6.70;3.25;;;20.10;99.30;;;;;;5066314;28;20021;-91
2021/06/24 12:48:23;;;;;;;7.18;3.20;;;20.20;98.90;;;;;;5087997;28;20032;-93
2021/06/24 12:50:49;;;;;;;4.88;3.13;;;20.40;98.80;;;;;;5097582;28;20016;-91
2021/06/24 12:53:15;;;;;;;3.80;3.00;;;20.60;98.60;;;;;;5090707;28;20024;-93
2021/06/24 12:55:53;;;;;;;3.92;2.70;;;20.70;98.40;;;;;;5084334;28;20033;-94
2021/06/24 12:58:32;;;;;;;4.50;3.08;;;20.90;98.10;;;;;;5096747;28;20020;-92
2021/06/24 13:01:18;;;;;;;4.13;3.03;;;21.00;98.00;;;;;;5083933;28;20024;-93
2021/06/24 13:03:51;;;;;;;5.57;3.20;;;20.90;98.00;;;;;;5080436;28;20067;-92
2021/06/24 13:06:20;;;;;;;;;;;20.90;98.20;;;;;;5081395;28;20032;-92
2021/06/24 13:09:09;;;;;;;3.30;2.60;;;20.80;98.30;;;;;;5083629;28;19919;-91
2021/06/24 13:11:39;;;;;;;4.75;2.75;;;20.70;98.30;;;;;;5089492;28;20062;-92
2021/06/24 13:14:09;;;;;;;5.45;3.20;;;20.70;98.40;;;;;;5092433;28;20323;-90
2021/06/24 13:16:46;;;;;;;4.60;2.88;;;20.70;98.30;;;;;;5073816;28;20410;-91
2021/06/24 13:19:25;;;;;;;4.82;3.10;;;20.60;98.20;;;;;;5065903;28;20025;-92
2021/06/24 13:21:55;;;;;;;5.03;3.30;;;20.60;98.30;;;;;;5070558;28;20115;-89
2021/06/24 13:24:22;;;;;;;4.72;3.30;;;20.70;98.40;;;;;;5067030;28;20478;-88
2021/06/24 13:26:49;;;;;;;5.85;3.97;;;20.70;98.10;;;;;;5072342;28;20021;-89
2021/06/24 13:29:16;;;;;;;4.30;2.85;;;20.90;98.00;;;;;;5065409;28;20113;-91
2021/06/24 13:31:46;;;;;;;5.13;2.92;;;21.00;97.90;;;;;;5052099;28;20053;-89
2021/06/24 13:34:14;;;;;;;4.68;3.13;;;21.20;98.00;;;;;;5068846;28;20021;-90
2021/06/24 13:36:40;;;;;;;4.85;3.30;;;21.30;97.90;;;;;;5065341;28;20020;-89
2021/06/24 13:39:12;;;;;;;5.35;3.33;;;21.40;97.70;;;;;;5058505;28;20150;-89
2021/06/24 13:41:38;;;;;;;6.20;3.70;;;21.30;97.50;;;;;;5068655;28;20675;-88
2021/06/24 13:44:20;;;;;;;5.57;3.17;;;21.20;97.40;;;;;;5058844;28;20040;-93
2021/06/24 13:46:49;;;;;;;4.95;3.85;;;21.20;97.50;;;;;;5058124;28;20021;-90
2021/06/24 13:49:17;;;;;;;4.65;3.35;;;21.10;97.60;;;;;;5061557;28;20036;-91
2021/06/24 13:51:52;;;;;;;5.35;3.40;;;21.00;98.10;;;;;;5055826;28;20051;-90
2021/06/24 13:54:23;;;;;;;5.63;3.40;;;20.90;98.00;;;;;;5070986;28;20043;-94
2021/06/24 13:56:50;;;;;;;4.80;3.42;;;20.70;98.10;;;;;;5061392;28;20404;-91
2021/06/24 13:59:17;;;;;;;4.32;3.42;;;20.70;98.10;;;;;;5067619;28;20025;-86
2021/06/24 14:01:47;;;;;;;5.93;4.22;;;20.70;98.00;;;;;;5070636;28;20076;-91
2021/06/24 14:04:14;;;;;;;4.25;3.25;;;20.60;98.00;;;;;;5069461;28;20099;-91
2021/06/24 14:06:44;;;;;;;4.90;3.38;;;20.70;98.10;;;;;;5070545;28;20027;-92
2021/06/24 14:09:12;;;;;;;9.80;5.28;;;20.60;98.00;;;;;;5071564;28;20137;-92
2021/06/24 14:11:41;;;;;;;7.40;5.43;;;20.50;97.90;;;;;;5072740;28;20034;-91
2021/06/24 14:14:07;;;;;;;5.45;3.88;;;20.30;98.00;;;;;;5060299;28;20041;-92
2021/06/24 14:16:34;;;;;;;6.50;4.07;;;20.20;98.10;;;;;;5072332;28;20048;-91
2021/06/24 14:19:00;;;;;;;7.00;4.28;;;20.20;98.20;;;;;;5057335;28;20064;-91
2021/06/24 14:21:26;;;;;;;8.60;4.90;;;20.20;98.20;;;;;;5067367;28;20020;-91
2021/06/24 14:23:57;;;;;;;5.88;4.30;;;20.20;98.20;;;;;;5072593;28;20021;-93
2021/06/24 14:26:27;;;;;;;5.07;4.13;;;20.10;98.10;;;;;;5072534;28;20734;-92
2021/06/24 14:28:53;;;;;;;5.50;3.72;;;20.10;98.20;;;;;;5059980;28;20688;-91
2021/06/24 14:31:20;;;;;;;3.92;3.17;;;20.20;98.20;;;;;;5074043;28;20109;-93
2021/06/24 14:33:46;;;;;;;5.75;3.92;;;20.30;98.30;;;;;;5079227;28;20188;-90
2021/06/24 14:36:13;;;;;;;6.82;4.20;;;20.30;98.10;;;;;;5069603;28;20020;-91
2021/06/24 14:38:40;;;;;;;6.32;3.80;;;20.40;98.00;;;;;;5059457;28;20074;-92
2021/06/24 14:41:06;;;;;;;6.25;3.97;;;20.30;98.10;;;;;;5076407;28;20039;-91
2021/06/24 14:43:33;;;;;;;5.13;3.25;;;20.40;98.00;;;;;;5075615;28;20063;-91
2021/06/24 15:24:53;;;;;;;4.57;3.65;;;20.90;98.20;;;;;;5035360;28;20371;-92
2021/06/24 15:27:18;;;;;;;5.63;4.15;;;20.90;98.10;;;;;;5027720;28;20026;-92
2021/06/24 15:29:47;;;;;;;6.75;3.85;;;20.90;98.10;;;;;;5021209;28;20057;-91
2021/06/24 15:32:15;;;;;;;6.10;4.35;;;21.00;97.90;;;;;;5016885;28;20833;-94
2021/06/24 15:35:18;;;;;;;;;;;;;;;;;;;;;
2021/06/24 15:38:10;;;;;;;5.20;3.25;;;21.00;97.80;;;;;;5042632;28;20106;-95
2021/06/24 15:40:38;;;;;;;5.50;4.55;;;21.00;97.80;;;;;;5026905;28;20029;-92
2021/06/24 15:43:09;;;;;;;5.55;4.18;;;21.10;97.60;;;;;;5025740;28;20072;-94
2021/06/24 15:45:41;;;;;;;7.07;3.72;;;21.10;97.50;;;;;;5020535;28;20099;-92
2021/06/24 15:48:07;;;;;;;6.07;4.32;;;21.10;97.50;;;;;;5015193;28;20386;-89
2021/06/24 15:50:36;;;;;;;5.82;4.32;;;21.20;97.20;;;;;;5030655;28;20025;-89
2021/06/24 15:53:07;;;;;;;5.15;3.60;;;21.20;96.90;;;;;;5012540;28;20051;-89
2021/06/24 15:55:40;;;;;;;6.93;3.85;;;21.20;97.00;;;;;;5010707;28;20128;-85
2021/06/24 16:17:34;;;;;;;5.57;4.20;;;21.30;97.10;;;;;;1324896;23;20327;-93
2021/06/24 16:20:00;;;;;;;8.02;4.35;;;21.30;97.10;;;;;;4954994;29;20126;-92
2021/06/24 16:22:30;;;;;;;6.47;3.60;;;21.30;97.00;;;;;;4938773;29;20134;-92
2021/06/24 16:24:56;;;;;;;6.65;4.47;;;21.30;97.00;;;;;;4954923;29;20023;-90
2021/06/24 16:27:22;;;;;;;6.57;3.97;;;21.40;97.40;;;;;;4955210;29;20032;-91
2021/06/24 16:29:47;;;;;;;7.25;4.05;;;21.50;97.00;;;;;;4953545;28;20090;-88
2021/06/24 16:32:19;;;;;;;5.90;4.00;;;21.50;96.90;;;;;;4954549;29;20555;-92